Estación Meteorológica Peña el Pijo (Robertgarden) [ 02/03/23 04:39:28 CET ]

Fecha Hora Presion(HPa) Temp (°C) Humedad % Rocio (°C) Viento ( m/s) Direccion Lluvia 1Hora(mm) Lluvia 24H(mm) LLuvia Total(mm)
2012-May-27 01:01:11 1011.800 14.0 53 4.6         159.54
2012-May-27 02:01:13 1011.800 12.6 57 4.3         159.54
2012-May-27 03:06:24 1011.600 11.3 60 3.5         159.54
2012-May-27 04:01:13 1011.400 11.1 60 3.6         159.54
2012-May-27 05:01:12 1011.400 10.3 62 3.3         159.54
2012-May-27 06:01:14 1011.400 9.9 62 2.9         159.54
2012-May-27 07:01:13 1011.600 8.9 66 2.9         159.54
2012-May-27 08:01:14 1011.900 11.9 65 5.5         159.54
2012-May-27 09:01:17 1011.600 17.9 50 7.3         159.54
2012-May-27 10:01:13 1011.100 22.4 39 7.7         159.54
2012-May-27 11:01:14 1011.200 27.5 28 7.2         159.54
2012-May-27 12:01:13 1010.900 29.2 26 7.5         159.54
2012-May-27 13:01:17 1010.800 29.0 23 5.6         159.54
2012-May-27 14:01:12 1010.500 26.7 26 5.4         159.54
2012-May-27 15:01:10 1010.400 26.9 26 5.6         159.54
2012-May-27 16:01:12 1009.900 29.0 23 5.6         159.54
2012-May-27 17:01:22 1009.700 30.1 21 5.3         159.54
2012-May-27 18:01:19 1009.600 27.9 26 6.4         159.54
2012-May-27 19:01:13 1009.100 24.9 35 8.3         159.54
2012-May-27 20:01:17 1009.200 24.2 39 9.4         159.54
2012-May-27 21:01:14 1009.900 21.8 43 8.6         159.54
2012-May-27 22:01:14 1010.300 18.2 52 8.1         159.54
2012-May-27 23:01:11 1010.700 16.4 57 7.8         159.54

Temperatura Máxima:30°    Temperatura Mínima:
Presión Máxima:1011.900 Hpa    Presión Mínima:1009.100 Hpa


Volver